createdAt,value
2018-01-22T00:04:47.435Z,26.33
2018-01-22T00:09:48.816Z,20.37
2018-01-22T00:14:50.178Z,21.20
2018-01-22T00:19:51.519Z,19.63
2018-01-22T00:24:52.875Z,21.00
2018-01-22T00:29:54.200Z,20.53
2018-01-22T00:34:56.290Z,27.23
2018-01-22T00:39:57.619Z,22.40
2018-01-22T00:44:59.744Z,21.37
2018-01-22T00:50:01.079Z,17.60
2018-01-22T00:55:02.402Z,20.00
2018-01-22T01:00:04.528Z,32.80
2018-01-22T01:05:05.851Z,26.00
2018-01-22T01:10:07.167Z,23.40
2018-01-22T01:15:08.577Z,20.90
2018-01-22T01:20:09.951Z,19.93
2018-01-22T01:25:11.331Z,21.20
2018-01-22T01:30:12.657Z,18.60
2018-01-22T01:35:14.000Z,19.13
2018-01-22T01:40:15.355Z,17.63
2018-01-22T01:45:16.711Z,21.80
2018-01-22T01:50:18.872Z,19.80
2018-01-22T01:55:20.293Z,18.10
2018-01-22T02:00:21.663Z,20.37
2018-01-22T02:05:22.985Z,24.93
2018-01-22T02:10:24.273Z,22.10
2018-01-22T02:15:26.326Z,18.30
2018-01-22T02:20:27.707Z,19.90
2018-01-22T02:25:29.055Z,21.63
2018-01-22T02:30:30.372Z,18.70
2018-01-22T02:35:31.702Z,17.90
2018-01-22T02:40:32.990Z,18.70
2018-01-22T02:45:34.314Z,17.07
2018-01-22T02:50:36.395Z,15.70
2018-01-22T02:55:37.766Z,16.77
2018-01-22T03:00:39.092Z,18.13
2018-01-22T03:05:40.420Z,16.70
2018-01-22T03:10:41.748Z,16.17
2018-01-22T03:15:43.063Z,12.67
2018-01-22T03:20:44.421Z,19.27
2018-01-22T03:25:45.758Z,12.03
2018-01-22T03:30:47.849Z,19.47
2018-01-22T03:35:49.895Z,16.00
2018-01-22T03:40:51.918Z,14.80
2018-01-22T03:45:53.873Z,15.50
2018-01-22T03:50:55.275Z,11.73
2018-01-22T03:55:57.335Z,13.13
2018-01-22T04:00:58.670Z,13.53
2018-01-22T04:06:00.715Z,12.63
2018-01-22T04:11:02.076Z,13.77
2018-01-22T04:16:03.387Z,11.07
2018-01-22T04:21:04.711Z,7.77
2018-01-22T04:26:06.027Z,9.83
2018-01-22T04:31:08.136Z,6.77
2018-01-22T04:36:10.231Z,7.67
2018-01-22T04:41:11.575Z,6.70
2018-01-22T04:46:12.906Z,11.70
2018-01-22T04:51:14.215Z,7.70
2018-01-22T04:56:16.255Z,8.40
2018-01-22T05:01:17.587Z,6.13
2018-01-22T05:06:18.930Z,6.70
2018-01-22T05:11:20.247Z,6.77
2018-01-22T05:16:21.591Z,5.40
2018-01-22T05:21:22.919Z,8.00
2018-01-22T05:26:24.247Z,9.47
2018-01-22T05:31:25.592Z,11.73
2018-01-22T05:36:26.899Z,8.00
2018-01-22T05:41:28.211Z,11.83
2018-01-22T05:46:29.535Z,10.40
2018-01-22T05:51:30.911Z,8.27
2018-01-22T05:56:32.219Z,12.40
2018-01-22T06:01:33.552Z,9.40
2018-01-22T06:06:34.895Z,7.40
2018-01-22T06:11:36.251Z,6.27
2018-01-22T06:16:38.319Z,10.37
2018-01-22T06:21:39.668Z,7.20
2018-01-22T06:26:41.116Z,9.43
2018-01-22T06:31:42.467Z,8.00
2018-01-22T06:36:43.786Z,7.93
2018-01-22T06:41:45.144Z,9.63
2018-01-22T06:46:46.451Z,12.43
2018-01-22T06:51:47.756Z,5.43
2018-01-22T06:56:49.095Z,7.20
2018-01-22T07:01:50.403Z,8.67
2018-01-22T07:06:51.743Z,6.17
2018-01-22T07:11:53.055Z,6.90
2018-01-22T07:16:55.162Z,5.57
2018-01-22T07:21:57.240Z,5.90
2018-01-22T07:26:58.556Z,6.57
2018-01-22T07:32:00.718Z,4.67
2018-01-22T07:37:02.086Z,5.63
2018-01-22T07:42:03.463Z,5.40
2018-01-22T07:47:04.867Z,6.50
2018-01-22T07:52:06.252Z,4.87
2018-01-22T07:57:07.551Z,8.10
2018-01-22T08:02:08.898Z,7.40
2018-01-22T08:07:10.978Z,7.17
2018-01-22T08:12:12.373Z,8.93
2018-01-22T08:17:13.721Z,5.30
2018-01-22T08:22:15.077Z,5.37
2018-01-22T08:27:17.131Z,5.43
2018-01-22T08:32:18.456Z,7.40
2018-01-22T08:37:19.774Z,13.23
2018-01-22T08:42:21.911Z,6.00
2018-01-22T08:47:23.214Z,7.67
2018-01-22T08:52:24.543Z,6.63
2018-01-22T08:57:26.624Z,4.77
2018-01-22T09:02:27.970Z,6.70
2018-01-22T09:07:29.336Z,6.20
2018-01-22T09:12:30.664Z,5.80
2018-01-22T09:17:32.009Z,7.13
2018-01-22T09:22:33.358Z,5.20
2018-01-22T09:27:34.719Z,6.13
2018-01-22T09:32:36.023Z,7.73
2018-01-22T09:37:37.387Z,5.20
2018-01-22T09:42:39.477Z,6.70
2018-01-22T09:47:41.530Z,6.37
2018-01-22T09:52:42.868Z,4.67
2018-01-22T09:57:44.947Z,4.20
2018-01-22T10:02:46.294Z,4.37
2018-01-22T10:07:47.644Z,4.20
2018-01-22T10:12:48.985Z,7.07
2018-01-22T10:17:50.335Z,4.80
2018-01-22T10:22:52.409Z,5.03
2018-01-22T10:27:53.712Z,3.83
2018-01-22T10:32:55.047Z,4.83
2018-01-22T10:37:56.395Z,4.77
2018-01-22T10:42:57.736Z,4.87
2018-01-22T10:47:59.068Z,4.50
2018-01-22T10:53:00.387Z,4.60
2018-01-22T10:58:02.476Z,4.10
2018-01-22T11:03:03.800Z,4.50
2018-01-22T11:08:05.990Z,4.30
2018-01-22T11:13:08.053Z,3.77
2018-01-22T11:18:09.366Z,4.73
2018-01-22T11:23:10.692Z,4.93
2018-01-22T11:28:12.028Z,3.93
2018-01-22T11:33:13.377Z,6.70
2018-01-22T11:38:14.727Z,4.37
2018-01-22T11:43:16.057Z,5.27
2018-01-22T11:48:17.392Z,5.03
2018-01-22T11:53:18.747Z,5.13
2018-01-22T11:58:20.120Z,4.70
2018-01-22T12:03:21.478Z,5.90
2018-01-22T12:08:22.859Z,5.43
2018-01-22T12:13:24.225Z,14.50
2018-01-22T12:18:25.546Z,12.37
2018-01-22T12:23:26.938Z,11.73
2018-01-22T12:28:28.284Z,6.70
2018-01-22T12:33:29.587Z,6.00
2018-01-22T12:38:30.940Z,6.50
2018-01-22T12:43:32.235Z,8.67
2018-01-22T12:48:33.567Z,7.50
2018-01-22T12:53:34.904Z,6.83
2018-01-22T12:58:36.252Z,6.60
2018-01-22T13:03:37.579Z,7.87
2018-01-22T13:08:38.923Z,9.87
2018-01-22T13:13:40.251Z,12.63
2018-01-22T13:18:41.582Z,12.43
2018-01-22T13:23:42.932Z,21.03
2018-01-22T13:28:44.996Z,15.90
2018-01-22T13:33:46.357Z,19.27
2018-01-22T13:38:47.676Z,21.27
2018-01-22T13:43:49.013Z,30.00
2018-01-22T13:48:50.357Z,24.13
2018-01-22T13:53:51.765Z,24.47
2018-01-22T13:58:53.808Z,32.23
2018-01-22T14:03:55.252Z,32.87
2018-01-22T14:08:56.698Z,28.40
2018-01-22T14:13:58.011Z,27.43
2018-01-22T14:18:59.335Z,29.87
2018-01-22T14:24:01.425Z,27.00
2018-01-22T14:29:02.806Z,32.97
2018-01-22T14:34:04.163Z,32.30
2018-01-22T14:39:05.524Z,33.83
2018-01-22T14:44:06.848Z,31.83
2018-01-22T14:49:08.147Z,40.00
2018-01-22T14:54:09.490Z,30.37
2018-01-22T14:59:11.555Z,33.03
2018-01-22T15:04:12.883Z,30.77
2018-01-22T15:09:14.987Z,23.50
2018-01-22T15:14:17.048Z,28.23
2018-01-22T15:19:18.376Z,34.63
2018-01-22T15:24:20.474Z,29.67
2018-01-22T15:29:21.791Z,26.17
2018-01-22T15:34:23.871Z,37.70
2018-01-22T15:39:25.208Z,26.87
2018-01-22T15:44:26.560Z,28.20
2018-01-22T15:49:28.607Z,33.23
2018-01-22T15:54:29.971Z,31.83
2018-01-22T15:59:32.027Z,29.87
2018-01-22T16:04:33.359Z,30.97
2018-01-22T16:09:35.452Z,33.67
2018-01-22T16:14:36.770Z,42.07
2018-01-22T16:19:38.095Z,47.03
2018-01-22T16:24:39.423Z,33.70
2018-01-22T16:29:40.740Z,50.83
2018-01-22T16:34:42.118Z,45.30
2018-01-22T16:39:44.199Z,42.47
2018-01-22T16:44:45.574Z,45.60
2018-01-22T16:49:46.898Z,41.60
2018-01-22T16:54:48.988Z,26.30
2018-01-22T16:59:50.303Z,39.13
2018-01-22T17:04:52.359Z,43.47
2018-01-22T17:09:53.707Z,40.10
2018-01-22T17:14:55.031Z,44.23
2018-01-22T17:19:56.346Z,56.57
2018-01-22T17:24:57.753Z,50.97
2018-01-22T17:30:00.543Z,36.23
2018-01-22T17:35:01.978Z,42.03
2018-01-22T17:40:04.150Z,39.80
2018-01-22T17:45:05.602Z,37.23
2018-01-22T17:50:06.950Z,56.40
2018-01-22T17:55:08.294Z,63.73
2018-01-22T18:00:09.640Z,42.33
2018-01-22T18:05:11.720Z,45.83
2018-01-22T18:10:13.056Z,43.07
2018-01-22T18:15:14.366Z,61.53
2018-01-22T18:20:15.735Z,73.53
2018-01-22T18:25:17.194Z,39.53
2018-01-22T18:30:18.506Z,52.17
2018-01-22T18:35:20.913Z,35.57
2018-01-22T18:40:22.278Z,44.30
2018-01-22T18:45:23.630Z,41.93
2018-01-22T18:50:24.967Z,62.57
2018-01-22T18:55:26.375Z,43.13
2018-01-22T19:00:28.496Z,49.33
2018-01-22T19:05:29.862Z,41.50
2018-01-22T19:10:31.364Z,44.30
2018-01-22T19:15:34.683Z,46.80
2018-01-22T19:20:36.360Z,41.57
2018-01-22T19:25:38.980Z,47.50
2018-01-22T19:30:40.315Z,53.17
2018-01-22T19:35:42.248Z,36.80
2018-01-22T19:40:43.623Z,45.93
2018-01-22T19:45:44.980Z,43.43
2018-01-22T19:50:46.868Z,53.03
2018-01-22T19:55:48.302Z,45.03
2018-01-22T20:00:49.794Z,46.13
2018-01-22T20:05:51.167Z,45.43
2018-01-22T20:10:53.252Z,42.20
2018-01-22T20:15:54.695Z,40.40
2018-01-22T20:20:56.022Z,44.93
2018-01-22T20:25:58.410Z,54.40
2018-01-22T20:30:59.856Z,38.20
2018-01-22T20:36:01.963Z,52.60
2018-01-22T20:41:04.392Z,45.77
2018-01-22T20:46:06.469Z,63.63
2018-01-22T20:51:07.820Z,45.70
2018-01-22T20:56:09.161Z,49.20
2018-01-22T21:01:10.564Z,54.37
2018-01-22T21:06:12.986Z,52.17
2018-01-22T21:11:14.408Z,42.80
2018-01-22T21:16:16.685Z,50.00
2018-01-22T21:21:18.784Z,45.03
2018-01-22T21:26:20.935Z,46.70
2018-01-22T21:31:22.361Z,40.57
2018-01-22T21:36:23.948Z,48.67
2018-01-22T21:41:25.524Z,52.83
2018-01-22T21:46:26.949Z,65.13
2018-01-22T21:51:28.374Z,42.63
2018-01-22T21:56:31.263Z,39.37
2018-01-22T22:01:32.701Z,45.67
2018-01-22T22:06:34.058Z,53.10
2018-01-22T22:11:35.355Z,57.70
2018-01-22T22:16:36.676Z,52.30
2018-01-22T22:21:38.088Z,60.90
2018-01-22T22:26:39.666Z,52.10
2018-01-22T22:31:40.992Z,56.57
2018-01-22T22:36:42.374Z,55.43
2018-01-22T22:41:43.731Z,54.30
2018-01-22T22:46:45.094Z,56.37
2018-01-22T22:51:47.151Z,49.67
2018-01-22T22:56:49.307Z,68.37
2018-01-22T23:01:50.731Z,52.77
2018-01-22T23:06:52.185Z,58.27
2018-01-22T23:11:53.572Z,41.73
2018-01-22T23:16:55.825Z,56.23
2018-01-22T23:21:57.146Z,77.17
2018-01-22T23:26:58.441Z,59.10
2018-01-22T23:31:59.752Z,66.00
2018-01-22T23:37:01.072Z,65.93
2018-01-22T23:42:02.559Z,68.50
2018-01-22T23:47:03.971Z,82.43
2018-01-22T23:52:05.283Z,55.47
2018-01-22T23:57:06.654Z,58.03
